Time;durP1;ratioP1;P1;durP2;ratioP2;P2;SDS_P1;SDS_P2;PMS_P1;PMS_P2;Temp;Humidity;BMP_temperature;BMP_pressure;BME280_temperature;BME280_humidity;BME280_pressure;Samples;Min_cycle;Max_cycle;Signal;HPM_P1;HPM_P2
2024/04/13 00:00:56;;;;;;;12.70;5.13;;;15.70;99.90;;;;;;5417543;26;20068;-48
2024/04/13 00:03:23;;;;;;;10.52;5.60;;;15.70;99.90;;;;;;5417564;26;20332;-50
2024/04/13 00:05:50;;;;;;;10.00;4.95;;;15.70;99.90;;;;;;5417960;26;20058;-50
2024/04/13 00:08:16;;;;;;;12.20;4.95;;;15.70;99.90;;;;;;5416641;26;20003;-49
2024/04/13 00:10:43;;;;;;;13.65;4.97;;;15.60;99.90;;;;;;5417311;26;20010;-48
2024/04/13 00:13:09;;;;;;;8.75;4.95;;;15.70;99.90;;;;;;5415419;26;20401;-49
2024/04/13 00:15:36;;;;;;;10.30;5.20;;;15.70;99.90;;;;;;5417696;26;20003;-49
2024/04/13 00:18:02;;;;;;;14.95;5.78;;;15.70;99.90;;;;;;5416099;26;20519;-48
2024/04/13 00:20:28;;;;;;;10.82;5.07;;;15.60;99.90;;;;;;5417431;26;20010;-49
2024/04/13 00:22:55;;;;;;;8.95;4.93;;;15.50;99.90;;;;;;5417515;26;19991;-49
2024/04/13 00:25:21;;;;;;;11.55;5.28;;;15.50;99.90;;;;;;5417169;26;19995;-50
2024/04/13 00:27:47;;;;;;;11.82;5.03;;;15.50;99.90;;;;;;5414685;26;20037;-48
2024/04/13 00:30:13;;;;;;;10.88;4.78;;;15.50;99.90;;;;;;5417316;26;20044;-49
2024/04/13 00:32:40;;;;;;;10.45;4.80;;;15.40;99.90;;;;;;5417146;26;19992;-48
2024/04/13 00:35:06;;;;;;;11.15;5.00;;;15.40;99.90;;;;;;5417058;26;20332;-48
2024/04/13 00:37:32;;;;;;;8.77;4.60;;;15.40;99.90;;;;;;5416351;26;20007;-52
2024/04/13 00:39:58;;;;;;;11.85;5.45;;;15.40;99.90;;;;;;5416899;26;19992;-48
2024/04/13 00:42:26;;;;;;;9.07;4.88;;;15.40;99.90;;;;;;5416942;26;20003;-51
2024/04/13 00:45:01;;;;;;;8.50;4.53;;;15.40;99.90;;;;;;5416823;26;19996;-51
2024/04/13 00:47:34;;;;;;;13.88;5.13;;;15.40;99.90;;;;;;5416625;26;20014;-48
2024/04/13 00:50:10;;;;;;;11.18;4.47;;;15.40;99.90;;;;;;5414285;26;20005;-48
2024/04/13 00:52:39;;;;;;;10.05;4.65;;;15.30;99.90;;;;;;5416756;26;20023;-50
2024/04/13 00:55:06;;;;;;;10.40;4.70;;;15.30;99.90;;;;;;5416985;26;20048;-48
2024/04/13 00:57:36;;;;;;;9.13;4.50;;;15.20;99.90;;;;;;5416041;26;19991;-52
2024/04/13 01:00:05;;;;;;;12.70;5.20;;;15.20;99.90;;;;;;5416744;26;20027;-48
2024/04/13 01:02:31;;;;;;;;;;;15.10;99.90;;;;;;5417572;26;20010;-49
2024/04/13 01:04:57;;;;;;;11.95;4.53;;;15.20;99.90;;;;;;5416573;26;19936;-49
2024/04/13 01:07:24;;;;;;;13.30;5.05;;;15.20;99.90;;;;;;5415751;26;20077;-48
2024/04/13 01:09:51;;;;;;;8.95;4.78;;;15.20;99.90;;;;;;5416569;26;20006;-50
2024/04/13 01:12:17;;;;;;;11.20;4.57;;;15.10;99.90;;;;;;5414816;26;20344;-49
2024/04/13 01:14:44;;;;;;;9.02;4.70;;;15.20;99.90;;;;;;5416541;26;20072;-49
2024/04/13 01:17:11;;;;;;;10.75;5.30;;;15.10;99.90;;;;;;5415764;26;19999;-49
2024/04/13 01:19:37;;;;;;;11.18;4.80;;;15.10;99.90;;;;;;5414691;26;20003;-51
2024/04/13 01:22:04;;;;;;;10.40;4.80;;;15.00;99.90;;;;;;5414848;26;20073;-50
2024/04/13 01:24:31;;;;;;;10.50;5.53;;;15.10;99.90;;;;;;5416412;26;20072;-48
2024/04/13 01:26:57;;;;;;;11.23;4.68;;;15.00;99.90;;;;;;5415669;26;20068;-51
2024/04/13 01:29:23;;;;;;;11.10;5.05;;;15.00;99.90;;;;;;5416076;26;19996;-48
2024/04/13 01:31:49;;;;;;;12.98;4.90;;;15.10;99.90;;;;;;5416657;26;20011;-49
2024/04/13 01:34:15;;;;;;;15.68;5.13;;;15.00;99.90;;;;;;5416112;26;20012;-51
2024/04/13 01:36:42;;;;;;;13.95;5.10;;;15.00;99.90;;;;;;5416097;26;20072;-48
2024/04/13 01:39:12;;;;;;;11.73;5.00;;;15.00;99.90;;;;;;5415509;26;20440;-48
2024/04/13 01:41:40;;;;;;;13.13;4.90;;;14.90;99.90;;;;;;5416250;26;20031;-48
2024/04/13 01:44:06;;;;;;;13.18;5.18;;;15.00;99.90;;;;;;5416063;26;20325;-47
2024/04/13 01:46:36;;;;;;;11.75;4.85;;;14.90;99.90;;;;;;5415917;26;20007;-48
2024/04/13 01:49:05;;;;;;;;;;;14.90;99.90;;;;;;5416178;26;20072;-49
2024/04/13 01:51:34;;;;;;;;;;;14.90;99.90;;;;;;5416831;26;19931;-48
2024/04/13 01:54:00;;;;;;;;;;;14.80;99.90;;;;;;5415478;26;20277;-49
2024/04/13 01:56:27;;;;;;;12.05;4.63;;;14.80;99.90;;;;;;5416100;26;19963;-49
2024/04/13 01:58:56;;;;;;;11.90;4.90;;;14.80;99.90;;;;;;5415045;26;20445;-48
2024/04/13 02:01:22;;;;;;;11.88;5.25;;;14.70;99.90;;;;;;5412581;26;20068;-49
2024/04/13 02:03:49;;;;;;;8.02;4.85;;;14.70;99.90;;;;;;5416209;26;19996;-48
2024/04/13 02:06:15;;;;;;;11.63;5.13;;;14.70;99.90;;;;;;5415827;26;20007;-50
2024/04/13 02:08:41;;;;;;;7.97;4.90;;;14.70;99.90;;;;;;5414756;26;20072;-49
2024/04/13 02:11:07;;;;;;;10.73;4.53;;;14.70;99.90;;;;;;5415536;26;20011;-48
2024/04/13 02:13:34;;;;;;;10.27;5.00;;;14.70;99.90;;;;;;5415639;26;20077;-47
2024/04/13 02:16:03;;;;;;;12.10;4.90;;;14.60;99.90;;;;;;5414000;26;20064;-48
2024/04/13 02:18:30;;;;;;;10.93;5.18;;;14.60;99.90;;;;;;5414934;26;20010;-51
2024/04/13 02:20:56;;;;;;;10.35;5.18;;;14.50;99.90;;;;;;5415608;26;20525;-48
2024/04/13 02:23:22;;;;;;;10.23;5.20;;;14.50;99.90;;;;;;5414855;26;19995;-48
2024/04/13 02:25:52;;;;;;;11.05;5.20;;;14.40;99.90;;;;;;5415848;26;19992;-50
2024/04/13 02:28:18;;;;;;;12.30;5.70;;;14.40;99.90;;;;;;5414875;26;19995;-50
2024/04/13 02:30:44;;;;;;;11.80;5.68;;;14.40;99.90;;;;;;5415346;26;19999;-50
2024/04/13 02:33:10;;;;;;;14.98;5.40;;;14.50;99.90;;;;;;5414829;26;20010;-49
2024/04/13 02:35:36;;;;;;;15.65;5.22;;;14.50;99.90;;;;;;5415291;26;20402;-49
2024/04/13 02:38:03;;;;;;;11.38;5.63;;;14.50;99.90;;;;;;5414479;26;19992;-49
2024/04/13 02:40:30;;;;;;;10.25;5.28;;;14.50;99.90;;;;;;5415156;26;20064;-48
2024/04/13 02:42:58;;;;;;;12.50;4.88;;;14.50;99.90;;;;;;5414100;26;20007;-48
2024/04/13 02:45:25;;;;;;;9.68;5.63;;;14.50;99.90;;;;;;5415221;26;19996;-48
2024/04/13 02:47:51;;;;;;;11.98;5.50;;;14.50;99.90;;;;;;5414572;26;20403;-49
2024/04/13 02:50:18;;;;;;;9.77;5.72;;;14.50;99.90;;;;;;5414954;26;20517;-51
2024/04/13 02:52:45;;;;;;;13.48;5.30;;;14.50;99.90;;;;;;5415034;26;20072;-49
2024/04/13 02:55:11;;;;;;;9.30;5.78;;;14.50;99.90;;;;;;5414967;26;20007;-48
2024/04/13 02:57:37;;;;;;;12.60;6.05;;;14.50;99.90;;;;;;5414113;26;20080;-49
2024/04/13 03:00:04;;;;;;;9.65;5.63;;;14.50;99.90;;;;;;5415088;26;20045;-49
2024/04/13 03:02:30;;;;;;;11.15;5.05;;;14.40;99.90;;;;;;5414899;26;20000;-47
2024/04/13 03:04:56;;;;;;;10.43;5.60;;;14.40;99.90;;;;;;5414820;26;20068;-48
2024/04/13 03:07:22;;;;;;;12.15;5.60;;;14.30;99.90;;;;;;5414088;26;20329;-48
2024/04/13 03:09:50;;;;;;;11.18;5.82;;;14.30;99.90;;;;;;5414450;26;19996;-49
2024/04/13 03:12:16;;;;;;;8.48;5.28;;;14.40;99.90;;;;;;5415547;26;20007;-48
2024/04/13 03:14:43;;;;;;;10.88;5.63;;;14.40;99.90;;;;;;5418323;26;20042;-47
2024/04/13 03:17:10;;;;;;;9.93;5.32;;;14.30;99.90;;;;;;5417477;26;20011;-48
2024/04/13 03:19:36;;;;;;;11.50;5.72;;;14.30;99.90;;;;;;5416413;26;19996;-48
2024/04/13 03:22:03;;;;;;;9.30;4.85;;;14.30;99.90;;;;;;5418058;26;20078;-47
2024/04/13 03:24:29;;;;;;;12.02;6.18;;;14.30;99.90;;;;;;5418021;26;19996;-48
2024/04/13 03:26:55;;;;;;;9.63;5.28;;;14.20;99.90;;;;;;5418039;26;20353;-46
2024/04/13 03:29:21;;;;;;;11.85;5.32;;;14.20;99.90;;;;;;5418279;26;20008;-48
2024/04/13 03:31:48;;;;;;;12.95;5.78;;;14.10;99.90;;;;;;5417911;26;19995;-48
2024/04/13 03:34:14;;;;;;;12.90;5.80;;;14.10;99.90;;;;;;5417984;26;19995;-47
2024/04/13 03:36:40;;;;;;;11.88;5.90;;;14.00;99.90;;;;;;5418030;26;20072;-50
2024/04/13 03:39:06;;;;;;;11.13;5.85;;;14.00;99.90;;;;;;5417576;26;19994;-50
2024/04/13 03:41:32;;;;;;;10.70;5.75;;;13.90;99.90;;;;;;5415804;26;19988;-48
2024/04/13 03:43:58;;;;;;;11.27;5.60;;;13.90;99.90;;;;;;5417942;26;20031;-48
2024/04/13 03:46:25;;;;;;;10.00;5.47;;;13.90;99.90;;;;;;5417853;26;19992;-48
2024/04/13 03:48:51;;;;;;;12.65;5.85;;;13.90;99.90;;;;;;5417097;26;19987;-49
2024/04/13 03:51:17;;;;;;;11.77;6.50;;;13.90;99.90;;;;;;5417473;26;19996;-50
2024/04/13 03:53:44;;;;;;;10.10;5.15;;;13.80;99.90;;;;;;5417810;26;20073;-48
2024/04/13 03:56:10;;;;;;;13.35;5.82;;;13.80;99.90;;;;;;5417728;26;20003;-50
2024/04/13 03:58:36;;;;;;;12.32;6.00;;;13.70;99.90;;;;;;5416891;26;20024;-49
2024/04/13 04:01:02;;;;;;;13.02;5.90;;;13.70;99.90;;;;;;5417886;26;20610;-48
2024/04/13 04:03:28;;;;;;;14.23;6.22;;;13.70;99.90;;;;;;5417595;26;20019;-48
2024/04/13 04:05:54;;;;;;;11.55;5.55;;;13.70;99.90;;;;;;5417531;26;20041;-53
2024/04/13 04:08:20;;;;;;;14.63;6.25;;;13.70;99.90;;;;;;5416618;26;19991;-50
2024/04/13 04:10:47;;;;;;;12.80;6.07;;;13.60;99.90;;;;;;5414688;26;19996;-50
2024/04/13 04:13:13;;;;;;;13.00;5.97;;;13.50;99.90;;;;;;5417540;26;20140;-49
2024/04/13 04:15:41;;;;;;;11.05;6.28;;;13.60;99.90;;;;;;5417439;26;19991;-49
2024/04/13 04:18:07;;;;;;;13.55;7.18;;;13.50;99.90;;;;;;5416612;26;19992;-50
2024/04/13 04:20:34;;;;;;;10.15;6.30;;;13.50;99.90;;;;;;5416735;26;20064;-51
2024/04/13 04:23:01;;;;;;;11.90;6.85;;;13.50;99.90;;;;;;5416004;26;20437;-48
2024/04/13 04:25:28;;;;;;;13.57;7.10;;;13.40;99.90;;;;;;5417516;26;20065;-48
2024/04/13 04:27:55;;;;;;;14.48;6.50;;;13.40;99.90;;;;;;5416549;26;20002;-47
2024/04/13 04:30:21;;;;;;;12.10;6.70;;;13.40;99.90;;;;;;5417311;26;20031;-48
2024/04/13 04:32:47;;;;;;;11.43;7.20;;;13.40;99.90;;;;;;5415353;26;20002;-49
2024/04/13 04:35:14;;;;;;;13.55;6.50;;;13.30;99.90;;;;;;5417065;26;20064;-49
2024/04/13 04:37:40;;;;;;;17.65;9.68;;;13.40;99.90;;;;;;5416195;26;19996;-47
2024/04/13 04:40:10;;;;;;;16.05;6.70;;;13.30;99.90;;;;;;5417195;26;19992;-49
2024/04/13 04:42:36;;;;;;;15.85;9.85;;;13.30;99.90;;;;;;5417271;26;19995;-48
2024/04/13 04:45:06;;;;;;;11.13;6.82;;;13.30;99.90;;;;;;5417332;26;20588;-50
2024/04/13 04:47:33;;;;;;;;;;;13.30;99.90;;;;;;5417223;26;19997;-49
2024/04/13 04:49:59;;;;;;;13.82;7.35;;;13.30;99.90;;;;;;5416950;26;19925;-48
2024/04/13 04:52:25;;;;;;;10.57;6.75;;;13.30;99.90;;;;;;5417306;26;20341;-49
2024/04/13 04:54:55;;;;;;;12.68;7.45;;;13.40;99.90;;;;;;5417153;26;20340;-49
2024/04/13 04:57:21;;;;;;;12.98;7.70;;;13.30;99.90;;;;;;5416224;26;20000;-49
2024/04/13 04:59:47;;;;;;;14.10;8.27;;;13.30;99.90;;;;;;5416845;26;19995;-53
2024/04/13 05:02:13;;;;;;;16.05;8.32;;;13.30;99.90;;;;;;5416828;26;20009;-49
2024/04/13 05:04:39;;;;;;;13.88;7.60;;;13.30;99.90;;;;;;5416625;26;20072;-48
2024/04/13 05:07:05;;;;;;;10.77;6.68;;;13.30;99.90;;;;;;5415659;26;19991;-49
2024/04/13 05:09:31;;;;;;;13.10;7.50;;;13.30;99.90;;;;;;5416819;26;20417;-48
2024/04/13 05:11:57;;;;;;;14.15;7.78;;;13.30;99.90;;;;;;5416517;26;19992;-48
2024/04/13 05:14:24;;;;;;;13.45;7.32;;;13.40;99.90;;;;;;5414812;26;19995;-48
2024/04/13 05:16:50;;;;;;;12.73;7.07;;;13.40;99.90;;;;;;5416973;26;20374;-50
2024/04/13 05:19:16;;;;;;;13.43;7.05;;;13.40;99.90;;;;;;5415807;26;19995;-49
2024/04/13 05:21:42;;;;;;;14.27;6.82;;;13.40;99.90;;;;;;5416550;26;20068;-48
2024/04/13 05:24:08;;;;;;;14.65;7.85;;;13.40;99.90;;;;;;5416816;26;19995;-51
2024/04/13 05:26:34;;;;;;;14.30;7.63;;;13.50;99.90;;;;;;5416537;26;19992;-48
2024/04/13 05:29:03;;;;;;;15.02;7.95;;;13.50;99.90;;;;;;5415659;26;20003;-49
2024/04/13 05:31:29;;;;;;;13.10;7.18;;;13.60;99.90;;;;;;5416791;26;19995;-52
2024/04/13 05:33:55;;;;;;;11.75;7.18;;;13.70;99.90;;;;;;5416026;26;19995;-51
2024/04/13 05:36:21;;;;;;;13.10;7.22;;;13.70;99.90;;;;;;5416248;26;20072;-49
2024/04/13 05:38:47;;;;;;;12.55;6.75;;;13.70;99.90;;;;;;5413848;26;20436;-48
2024/04/13 05:41:14;;;;;;;13.45;7.43;;;13.70;99.90;;;;;;5415962;26;19992;-49
2024/04/13 05:43:40;;;;;;;12.73;7.28;;;13.70;99.90;;;;;;5416522;26;20324;-49
2024/04/13 05:46:06;;;;;;;11.60;6.95;;;13.80;99.90;;;;;;5416323;26;19991;-47
2024/04/13 05:48:32;;;;;;;11.38;6.53;;;13.80;99.90;;;;;;5414956;26;19991;-49
2024/04/13 05:50:59;;;;;;;13.63;6.80;;;13.80;99.90;;;;;;5415960;26;19991;-48
2024/04/13 05:53:26;;;;;;;11.68;6.85;;;13.90;99.90;;;;;;5416365;26;19992;-48
2024/04/13 05:55:52;;;;;;;15.63;6.72;;;13.90;99.90;;;;;;5416215;26;20456;-49
2024/04/13 05:58:19;;;;;;;13.20;7.53;;;14.00;99.90;;;;;;5415257;26;20509;-47
2024/04/13 06:00:46;;;;;;;13.75;7.07;;;14.00;99.90;;;;;;5414281;26;20380;-48
2024/04/13 06:03:13;;;;;;;12.57;6.50;;;14.10;99.90;;;;;;5414707;26;19995;-48
2024/04/13 06:05:43;;;;;;;12.30;6.53;;;14.20;99.90;;;;;;5415809;26;20003;-48
2024/04/13 06:08:10;;;;;;;13.07;7.28;;;14.20;99.90;;;;;;5415093;26;20069;-48
2024/04/13 06:10:36;;;;;;;12.60;6.95;;;14.30;99.90;;;;;;5414673;26;19996;-48
2024/04/13 06:13:02;;;;;;;10.32;6.25;;;14.30;99.90;;;;;;5415881;26;20690;-50
2024/04/13 06:15:28;;;;;;;13.30;6.22;;;14.40;99.90;;;;;;5415417;26;19992;-49
2024/04/13 06:17:54;;;;;;;10.82;6.57;;;14.40;99.90;;;;;;5414935;26;19999;-48
2024/04/13 06:20:20;;;;;;;8.27;6.13;;;14.70;99.90;;;;;;5415579;26;19991;-48
2024/04/13 06:22:47;;;;;;;17.13;7.22;;;14.80;99.90;;;;;;5415556;26;20068;-50
2024/04/13 06:25:13;;;;;;;12.00;6.35;;;14.80;99.90;;;;;;5414985;26;20065;-48
2024/04/13 06:27:40;;;;;;;11.65;6.32;;;15.10;99.90;;;;;;5413154;26;19995;-46
2024/04/13 06:30:07;;;;;;;13.45;5.60;;;15.20;99.90;;;;;;5415108;26;19995;-46
2024/04/13 06:32:33;;;;;;;17.23;10.52;;;15.40;99.90;;;;;;5415533;26;20007;-47
2024/04/13 06:34:59;;;;;;;20.75;10.95;;;15.60;99.90;;;;;;5415779;26;20508;-46
2024/04/13 06:37:26;;;;;;;16.58;9.35;;;15.60;99.90;;;;;;5413948;26;20069;-46
2024/04/13 06:39:52;;;;;;;11.88;6.72;;;15.70;99.90;;;;;;5415199;26;19996;-47
2024/04/13 06:42:18;;;;;;;11.10;5.90;;;15.70;99.90;;;;;;5415387;26;19996;-50
2024/04/13 06:44:44;;;;;;;14.63;7.28;;;15.70;99.90;;;;;;5415056;26;20328;-48
2024/04/13 06:47:10;;;;;;;12.13;5.68;;;15.90;99.90;;;;;;5416358;26;19991;-47
2024/04/13 06:49:36;;;;;;;12.73;5.97;;;16.00;99.90;;;;;;5418657;26;19995;-48
2024/04/13 06:52:03;;;;;;;12.02;6.10;;;16.10;99.90;;;;;;5418613;26;19991;-48
2024/04/13 06:54:29;;;;;;;11.38;4.97;;;16.20;99.90;;;;;;5418760;26;20072;-49
2024/04/13 06:56:55;;;;;;;11.35;5.88;;;16.40;99.90;;;;;;5418542;26;19995;-48
2024/04/13 06:59:21;;;;;;;10.50;5.57;;;16.40;99.90;;;;;;5417698;26;19995;-48
2024/04/13 07:01:49;;;;;;;7.65;5.15;;;16.40;99.90;;;;;;5418937;26;20444;-50
2024/04/13 07:04:15;;;;;;;10.18;5.65;;;16.40;99.90;;;;;;5418633;26;20002;-49
2024/04/13 07:06:41;;;;;;;9.70;5.55;;;16.50;99.90;;;;;;5418353;26;20372;-48
2024/04/13 07:09:11;;;;;;;13.50;5.10;;;16.50;99.90;;;;;;5417547;26;20132;-48
2024/04/13 07:11:37;;;;;;;9.55;5.10;;;16.60;99.90;;;;;;5418289;26;20000;-50
2024/04/13 07:14:03;;;;;;;9.88;5.03;;;16.70;99.90;;;;;;5418712;26;20069;-49
2024/04/13 07:16:32;;;;;;;10.93;4.93;;;16.80;99.90;;;;;;5418282;26;20003;-49
2024/04/13 07:18:58;;;;;;;13.57;5.10;;;16.90;99.90;;;;;;5418046;26;19995;-51
2024/04/13 07:21:24;;;;;;;9.80;5.15;;;17.00;99.90;;;;;;5386938;26;20068;-48
2024/04/13 07:23:51;;;;;;;16.70;8.95;;;17.00;99.90;;;;;;5416490;26;19995;-53
2024/04/13 07:26:17;;;;;;;13.20;6.40;;;17.10;99.90;;;;;;5418371;26;20440;-50
2024/04/13 07:28:44;;;;;;;8.88;5.07;;;17.20;99.90;;;;;;5417686;26;20034;-48
2024/04/13 07:31:09;;;;;;;10.73;6.20;;;17.30;99.90;;;;;;5418022;26;20064;-48
2024/04/13 07:33:36;;;;;;;9.25;4.95;;;17.50;99.90;;;;;;5416376;26;19995;-48
2024/04/13 07:36:02;;;;;;;12.07;4.88;;;17.50;99.90;;;;;;5418073;26;19999;-49
2024/04/13 07:38:28;;;;;;;10.20;5.38;;;17.50;99.90;;;;;;5416486;26;20404;-49
2024/04/13 07:40:54;;;;;;;11.32;5.88;;;17.50;99.90;;;;;;5417663;26;19991;-48
2024/04/13 07:43:20;;;;;;;9.57;5.00;;;17.50;99.90;;;;;;5415227;26;19991;-47
2024/04/13 07:45:49;;;;;;;8.02;5.13;;;17.60;99.90;;;;;;5417146;26;20069;-46
2024/04/13 07:48:15;;;;;;;7.90;4.55;;;17.70;99.90;;;;;;5416936;26;19992;-46
2024/04/13 07:50:42;;;;;;;12.15;4.97;;;17.90;99.90;;;;;;5417417;26;19995;-47
2024/04/13 07:53:08;;;;;;;8.00;4.55;;;18.00;99.90;;;;;;5417677;26;20336;-48
2024/04/13 07:55:34;;;;;;;11.43;4.93;;;18.10;99.90;;;;;;5417450;26;20402;-47
2024/04/13 07:58:00;;;;;;;9.45;4.30;;;18.20;99.90;;;;;;5416859;26;19991;-47
2024/04/13 08:00:26;;;;;;;6.82;4.60;;;18.20;99.90;;;;;;5417453;26;20005;-48
2024/04/13 08:02:52;;;;;;;11.27;4.53;;;18.40;99.90;;;;;;5417708;26;20428;-46
2024/04/13 08:05:18;;;;;;;7.95;4.50;;;18.50;99.90;;;;;;5417414;26;20045;-48
2024/04/13 08:07:44;;;;;;;7.72;4.72;;;18.70;99.90;;;;;;5417005;26;20432;-47
2024/04/13 08:10:10;;;;;;;7.90;4.95;;;19.00;99.90;;;;;;5416591;26;19996;-47
2024/04/13 08:12:36;;;;;;;8.70;4.90;;;19.10;99.90;;;;;;5417725;26;20070;-48
2024/04/13 08:15:03;;;;;;;7.90;4.47;;;19.20;99.90;;;;;;5417276;26;20068;-48
2024/04/13 08:17:29;;;;;;;8.95;4.53;;;19.20;99.90;;;;;;5416671;26;20015;-47
2024/04/13 08:19:55;;;;;;;9.63;4.65;;;19.30;99.90;;;;;;5415576;26;20358;-47
2024/04/13 08:22:21;;;;;;;12.73;4.82;;;19.40;99.90;;;;;;5417254;26;19996;-47
2024/04/13 08:24:51;;;;;;;6.82;4.20;;;19.50;99.90;;;;;;5417182;26;19992;-47
2024/04/13 08:27:17;;;;;;;8.55;4.35;;;19.40;99.90;;;;;;5416471;26;20006;-48
2024/04/13 08:29:43;;;;;;;8.70;4.22;;;19.40;99.90;;;;;;5415419;26;20320;-48
2024/04/13 08:32:09;;;;;;;11.27;4.78;;;19.50;99.90;;;;;;5417232;26;20344;-47
2024/04/13 08:34:35;;;;;;;9.25;3.90;;;19.40;99.90;;;;;;5417374;26;20444;-49
2024/04/13 08:37:01;;;;;;;9.93;4.78;;;19.40;99.90;;;;;;5415624;26;20064;-47
2024/04/13 08:39:27;;;;;;;8.57;4.32;;;19.60;99.90;;;;;;5416896;26;19991;-47
2024/04/13 08:42:05;;;;;;;9.57;4.20;;;19.60;99.90;;;;;;5417108;26;20010;-47
2024/04/13 08:44:32;;;;;;;9.45;4.20;;;19.60;99.90;;;;;;5417306;26;20006;-47
2024/04/13 08:47:00;;;;;;;6.90;3.53;;;19.80;99.90;;;;;;5416945;26;20321;-50
2024/04/13 08:49:39;;;;;;;8.90;4.63;;;19.90;99.90;;;;;;5415323;26;20020;-47
2024/04/13 08:52:10;;;;;;;;;;;20.00;99.90;;;;;;5417576;26;20036;-50
2024/04/13 08:54:36;;;;;;;8.65;4.55;;;19.90;99.90;;;;;;5416639;26;19929;-49
2024/04/13 08:57:06;;;;;;;9.45;4.45;;;19.80;99.90;;;;;;5415912;26;20028;-48
2024/04/13 08:59:33;;;;;;;13.38;7.28;;;19.90;99.90;;;;;;5416969;26;20463;-48
2024/04/13 09:02:04;;;;;;;12.30;4.57;;;20.00;99.90;;;;;;5414934;26;20464;-49
2024/04/13 09:04:32;;;;;;;7.15;4.20;;;20.00;99.90;;;;;;5416860;26;20159;-50
2024/04/13 09:06:58;;;;;;;8.03;4.70;;;20.00;99.90;;;;;;5416315;26;19995;-48
2024/04/13 09:09:25;;;;;;;9.10;4.65;;;20.10;99.90;;;;;;5415059;26;19995;-52
2024/04/13 09:11:52;;;;;;;12.50;4.63;;;20.30;99.90;;;;;;5416795;26;20745;-51
2024/04/13 09:14:18;;;;;;;7.70;4.50;;;20.40;99.90;;;;;;5416418;26;20042;-49
2024/04/13 09:16:45;;;;;;;11.32;5.15;;;20.60;99.90;;;;;;5416473;26;19991;-51
2024/04/13 09:19:11;;;;;;;8.95;4.63;;;20.70;99.90;;;;;;5415697;26;19991;-50
2024/04/13 09:21:41;;;;;;;9.82;4.95;;;20.80;99.90;;;;;;5416410;26;20320;-48
2024/04/13 09:24:07;;;;;;;14.32;4.90;;;21.10;99.90;;;;;;5416415;26;20364;-48
2024/04/13 09:26:44;;;;;;;11.90;4.47;;;21.20;99.90;;;;;;5416719;26;19995;-48
2024/04/13 09:29:14;;;;;;;7.72;4.43;;;21.30;99.90;;;;;;5415260;26;20361;-51
2024/04/13 09:31:40;;;;;;;11.57;4.85;;;21.40;99.90;;;;;;5416505;26;20000;-48
2024/04/13 09:34:06;;;;;;;7.93;4.40;;;21.60;99.90;;;;;;5416208;26;20051;-49
2024/04/13 09:36:32;;;;;;;8.30;4.40;;;21.70;99.90;;;;;;5416277;26;19995;-50
2024/04/13 09:38:58;;;;;;;7.85;4.70;;;21.80;99.90;;;;;;5415552;26;19992;-49
2024/04/13 09:41:25;;;;;;;9.73;4.55;;;21.80;99.90;;;;;;5416314;26;20463;-49
2024/04/13 09:43:52;;;;;;;8.27;4.60;;;21.90;99.90;;;;;;5415939;26;20000;-47
2024/04/13 09:46:19;;;;;;;9.65;4.30;;;21.90;99.90;;;;;;5415454;26;20064;-47
2024/04/13 09:48:45;;;;;;;9.60;5.00;;;22.10;99.90;;;;;;5414277;26;19988;-51
2024/04/13 09:51:11;;;;;;;9.80;4.70;;;22.30;99.90;;;;;;5416277;26;20389;-50
2024/04/13 09:53:37;;;;;;;8.60;3.70;;;22.40;99.90;;;;;;5416158;26;19995;-50
2024/04/13 09:56:04;;;;;;;9.15;4.30;;;22.50;99.90;;;;;;5414270;26;19991;-52
2024/04/13 09:58:31;;;;;;;8.55;4.38;;;22.80;99.90;;;;;;5413865;26;20069;-50
2024/04/13 10:01:04;;;;;;;7.80;3.88;;;23.10;99.90;;;;;;5416167;26;20064;-48
2024/04/13 10:03:31;;;;;;;7.32;3.80;;;23.40;99.90;;;;;;5415937;26;19996;-49
2024/04/13 10:05:58;;;;;;;9.82;3.72;;;23.70;99.90;;;;;;5415732;26;20352;-48
2024/04/13 10:08:27;;;;;;;5.60;3.10;;;23.80;99.90;;;;;;5414910;26;19995;-48
2024/04/13 10:10:54;;;;;;;5.57;2.63;;;24.00;99.90;;;;;;5384710;26;20491;-49
2024/04/13 10:13:36;;;;;;;7.15;3.25;;;24.20;99.90;;;;;;5415637;26;20010;-48
2024/04/13 10:16:03;;;;;;;11.35;3.22;;;24.60;99.90;;;;;;5414627;26;20064;-51
2024/04/13 10:18:29;;;;;;;6.05;2.50;;;24.70;99.90;;;;;;5415035;26;19991;-48
2024/04/13 10:20:56;;;;;;;5.63;2.47;;;24.80;99.90;;;;;;5413835;26;19992;-48
2024/04/13 10:23:22;;;;;;;6.20;2.58;;;24.90;99.90;;;;;;5415823;26;19996;-49
2024/04/13 10:25:58;;;;;;;5.22;2.47;;;25.20;99.90;;;;;;5415852;26;20447;-48
2024/04/13 10:28:24;;;;;;;6.63;2.65;;;25.20;99.90;;;;;;5414435;26;20069;-48
2024/04/13 10:30:52;;;;;;;3.42;1.77;;;25.60;99.90;;;;;;5415379;26;20436;-49
2024/04/13 10:33:22;;;;;;;4.63;2.40;;;26.00;99.30;;;;;;5415551;26;20006;-51
2024/04/13 10:36:07;;;;;;;7.28;2.63;;;26.50;98.30;;;;;;5415219;26;20010;-53
2024/04/13 10:38:35;;;;;;;6.47;2.40;;;26.70;97.30;;;;;;5414746;26;20069;-48
2024/04/13 10:41:02;;;;;;;4.75;2.15;;;27.00;96.50;;;;;;5415092;26;20333;-47
2024/04/13 10:43:29;;;;;;;6.85;2.30;;;27.30;95.30;;;;;;5414982;26;20410;-47
2024/04/13 10:46:00;;;;;;;5.25;2.20;;;27.40;95.90;;;;;;5415127;26;19996;-51
2024/04/13 10:48:29;;;;;;;3.60;2.03;;;27.20;95.80;;;;;;5414254;26;20014;-48
2024/04/13 10:50:55;;;;;;;;;;;27.30;95.80;;;;;;5415214;26;20410;-49
2024/04/13 10:53:27;;;;;;;5.32;2.25;;;27.30;95.50;;;;;;5415245;26;19994;-49
2024/04/13 10:55:56;;;;;;;5.03;2.03;;;26.80;96.10;;;;;;5414866;26;20032;-47
2024/04/13 10:58:27;;;;;;;;;;;26.60;96.20;;;;;;5414913;26;20007;-48
2024/04/13 11:00:54;;;;;;;8.05;2.10;;;26.40;96.30;;;;;;5414750;26;20358;-48
2024/04/13 11:03:20;;;;;;;5.00;2.00;;;26.40;96.50;;;;;;5415044;26;20325;-48
2024/04/13 11:05:47;;;;;;;5.38;2.17;;;26.30;96.20;;;;;;5415048;26;20064;-48
2024/04/13 11:08:13;;;;;;;6.80;2.20;;;26.20;96.10;;;;;;5413898;26;19996;-47
2024/04/13 11:10:43;;;;;;;4.80;2.30;;;26.10;96.40;;;;;;5414344;26;20000;-47
2024/04/13 11:13:09;;;;;;;6.90;2.63;;;26.30;96.10;;;;;;5414677;26;20019;-47
2024/04/13 11:15:35;;;;;;;6.75;2.03;;;26.20;96.10;;;;;;5414636;26;20396;-48
2024/04/13 11:18:04;;;;;;;5.85;2.10;;;26.10;97.40;;;;;;5413643;26;20007;-47
2024/04/13 11:20:33;;;;;;;4.63;2.10;;;26.20;96.50;;;;;;5412647;26;19996;-51
2024/04/13 11:22:59;;;;;;;;;;;26.40;97.10;;;;;;5415140;26;19999;-48
2024/04/13 11:25:25;;;;;;;5.68;2.35;;;26.70;95.70;;;;;;5413968;26;19994;-49
2024/04/13 11:27:51;;;;;;;5.65;2.60;;;26.70;95.30;;;;;;5412817;26;20394;-49
2024/04/13 11:30:18;;;;;;;6.38;3.03;;;26.40;95.40;;;;;;5414512;26;20095;-49
2024/04/13 11:32:45;;;;;;;5.93;2.88;;;26.20;96.20;;;;;;5414395;26;19991;-47
2024/04/13 11:35:17;;;;;;;7.68;2.85;;;26.00;95.80;;;;;;5417225;26;19991;-50
2024/04/13 11:37:59;;;;;;;7.32;3.05;;;25.90;96.50;;;;;;5417512;26;20000;-48
2024/04/13 11:40:39;;;;;;;4.75;2.38;;;25.70;96.40;;;;;;5418067;26;19996;-48
2024/04/13 11:43:05;;;;;;;6.05;2.50;;;25.50;96.80;;;;;;5417856;26;19996;-49
2024/04/13 11:45:32;;;;;;;6.68;2.20;;;25.50;97.00;;;;;;5418115;26;20441;-47
2024/04/13 11:47:59;;;;;;;6.82;2.28;;;25.40;97.00;;;;;;5417082;26;20082;-48
2024/04/13 11:50:25;;;;;;;6.90;2.33;;;25.20;96.90;;;;;;5417673;26;20006;-49
2024/04/13 11:52:51;;;;;;;5.07;2.13;;;25.20;96.30;;;;;;5417619;26;19999;-47
2024/04/13 11:55:21;;;;;;;3.92;2.00;;;25.20;97.00;;;;;;5417623;26;20003;-47
2024/04/13 11:57:47;;;;;;;4.90;2.25;;;25.30;96.90;;;;;;5416979;26;19992;-49
2024/04/13 12:00:14;;;;;;;6.32;2.15;;;25.30;95.90;;;;;;5415857;26;19999;-50
2024/04/13 12:02:41;;;;;;;6.20;1.98;;;25.40;96.00;;;;;;5417801;26;20449;-47
2024/04/13 12:05:07;;;;;;;5.28;2.03;;;25.30;96.20;;;;;;5415946;26;20497;-47
2024/04/13 12:07:33;;;;;;;5.32;2.00;;;25.20;96.90;;;;;;5416683;26;20065;-49
2024/04/13 12:09:59;;;;;;;4.35;1.90;;;25.30;96.80;;;;;;5417427;26;19996;-49
2024/04/13 12:12:25;;;;;;;5.30;1.92;;;25.40;96.00;;;;;;5417408;26;20068;-50
2024/04/13 12:14:53;;;;;;;4.55;1.90;;;25.40;96.20;;;;;;5433030;21;20002;-49
2024/04/13 12:17:19;;;;;;;5.28;2.15;;;25.50;95.90;;;;;;5416618;26;20006;-51
2024/04/13 12:19:46;;;;;;;6.50;1.90;;;25.30;95.40;;;;;;5416366;26;19995;-49
2024/04/13 12:22:12;;;;;;;6.05;2.38;;;25.20;95.90;;;;;;5416091;26;19991;-50
2024/04/13 12:24:38;;;;;;;5.78;1.67;;;25.20;96.00;;;;;;5417398;26;20513;-51
2024/04/13 12:27:05;;;;;;;4.72;1.80;;;25.10;96.50;;;;;;5416324;26;19995;-51
2024/04/13 12:29:31;;;;;;;5.93;2.00;;;25.20;96.10;;;;;;5417131;26;19991;-50
2024/04/13 12:31:59;;;;;;;4.72;1.80;;;25.10;96.00;;;;;;5416102;26;20339;-51
2024/04/13 12:34:25;;;;;;;5.53;1.90;;;25.20;95.70;;;;;;5417141;26;20509;-51
2024/04/13 12:36:51;;;;;;;6.32;1.90;;;25.20;96.10;;;;;;5416350;26;19996;-49
2024/04/13 12:39:17;;;;;;;3.47;1.75;;;25.30;95.70;;;;;;5416307;26;20401;-50
2024/04/13 12:41:43;;;;;;;4.35;2.10;;;25.40;94.90;;;;;;5417156;26;20068;-50